Hagen — V2PB3 — position and weather

sailwx.info

Track history (hours):
 
Tides and Currents Weather Stations Pressure Air Temp Water Temp Dewpoint Dewpoint Depression Visibility Wind Speed Wind Dir Waves Ship Positions

Hagen

Last reported at 2015-Aug-04 09:17 UTC. Time now 2015-Aug-04 09:43 UTC.
Position N 51°05' E 004°20'.

Length 89 m; draft 5.9 m.

Type: Cargo ship. MMSI: 304010898.

Date/timePositionNaut miles runAvg speedWind from/ knotsBaromVisibWave heightAir tempDewpointWater temp
2015-Aug-04 09:17N 51°05' E 004°20'0 0.0
2015-Aug-04 07:32N 51°05' E 004°20'0 0.0
2015-Aug-04 06:26N 51°05' E 004°20'0 0.0
2015-Aug-04 05:32N 51°05' E 004°20'0 0.0
2015-Aug-04 04:32N 51°05' E 004°20'0 0.0
2015-Aug-04 03:32N 51°05' E 004°20'0 0.0
2015-Aug-04 02:32N 51°05' E 004°20'0 0.0
2015-Aug-04 01:32N 51°05' E 004°20'0 0.0
2015-Aug-04 00:32N 51°05' E 004°20'0 0.0
2015-Aug-03 23:23N 51°05' E 004°20'0 0.0
2015-Aug-03 19:32N 51°05' E 004°20'0 0.0
2015-Aug-03 18:29N 51°05' E 004°20'0 0.0
2015-Aug-03 17:29N 51°05' E 004°20'0 0.0
2015-Aug-03 16:11N 51°05' E 004°20'0 0.0
2015-Aug-03 15:32N 51°05' E 004°20'0 0.0
2015-Aug-03 14:32N 51°05' E 004°20'0 0.0
2015-Aug-03 13:05N 51°05' E 004°20'0 0.0
2015-Aug-03 12:29N 51°05' E 004°20'0 0.0
2015-Aug-03 10:29N 51°05' E 004°20'0 0.0
2015-Aug-03 09:32N 51°05' E 004°20'0 0.0
2015-Aug-03 08:29N 51°05' E 004°20'0 0.0
2015-Aug-03 07:32N 51°05' E 004°20'0 0.0
2015-Aug-03 06:29N 51°05' E 004°20'0 0.0
2015-Aug-03 04:17N 51°05' E 004°20'0 0.0
2015-Aug-03 03:32N 51°05' E 004°20'0 0.0
2015-Aug-03 02:23N 51°05' E 004°20'0 0.0
2015-Aug-03 00:32N 51°05' E 004°20'0 0.0
2015-Aug-02 23:26N 51°05' E 004°20'0 0.0
2015-Aug-02 21:26N 51°05' E 004°20'0 0.0
2015-Aug-02 20:14N 51°05' E 004°20'0 0.0
2015-Aug-02 19:26N 51°05' E 004°20'0 0.0
2015-Aug-02 18:23N 51°05' E 004°20'0 0.0
2015-Aug-02 17:29N 51°05' E 004°20'0 0.0
2015-Aug-02 16:20N 51°05' E 004°20'0 0.0
2015-Aug-02 15:23N 51°05' E 004°20'1 1.4
2015-Aug-02 14:31N 51°06' E 004°19'3 2.6
2015-Aug-02 13:33N 51°08' E 004°20'7 6.8
2015-Aug-02 12:33N 51°15' E 004°19'9 9.2
2015-Aug-02 11:33N 51°24' E 004°13'9 8.9
2015-Aug-02 10:33N 51°26' E 003°59'9 9.2
2015-Aug-02 09:33N 51°22' E 003°46'9 9.0
2015-Aug-02 08:33N 51°25' E 003°33'9 8.8
2015-Aug-02 07:33N 51°24' E 003°19'8 8.1
2015-Aug-02 06:33N 51°24' E 003°05'10 9.6
2015-Aug-02 05:33N 51°22' E 002°51'10 9.4
2015-Aug-02 04:32N 51°22' E 002°35'7 6.7
2015-Aug-02 03:33N 51°20' E 002°25'4 3.6
2015-Aug-02 02:33N 51°19' E 002°20'7 6.8
2015-Aug-02 01:33N 51°16' E 002°10'1413.6
2015-Aug-02 00:33N 51°09' E 001°51'1413.9
2015-Aug-01 23:33N 50°60' E 001°35'1312.7
2015-Aug-01 22:33N 50°49' E 001°25'1311.5
2015-Aug-01 21:27N 50°39' E 001°13'74 9.1
2015-Aug-01 13:14N 50°34' W 000°44'6 9.0
2015-Aug-01 12:33N 50°39' W 000°51'9 8.9
2015-Aug-01 11:33N 50°43' W 001°03'10 9.8
2015-Aug-01 10:33N 50°48' W 001°16'7 6.6
2015-Aug-01 09:33N 50°53' W 001°24'0 0.0
2015-Aug-01 08:33N 50°53' W 001°24'0 0.0
2015-Aug-01 07:33N 50°53' W 001°24'0 0.0
2015-Aug-01 05:30N 50°53' W 001°24'0 0.0
2015-Aug-01 02:33N 50°53' W 001°24'0 0.0
2015-Jul-31 22:27N 50°53' W 001°24'0 0.0
2015-Jul-31 21:21N 50°53' W 001°24'0 0.0
2015-Jul-31 20:33N 50°53' W 001°24'0 0.0
2015-Jul-31 16:33N 50°53' W 001°24'0 0.0
2015-Jul-31 15:27N 50°53' W 001°24'0 0.0
2015-Jul-31 04:21N 50°53' W 001°24'0 0.0
2015-Jul-31 03:24N 50°53' W 001°24'0 0.0
2015-Jul-31 02:33N 50°53' W 001°24'0 0.0
2015-Jul-31 01:33N 50°53' W 001°24'0 0.0
2015-Jul-31 00:27N 50°53' W 001°24'0 0.0
2015-Jul-30 23:33N 50°53' W 001°24'0 0.0
2015-Jul-30 22:06N 50°53' W 001°24'0 0.0
2015-Jul-30 21:33N 50°53' W 001°24'0 0.0
2015-Jul-30 20:33N 50°53' W 001°24'0 0.0
2015-Jul-30 19:33N 50°53' W 001°24'0 0.0
2015-Jul-30 18:30N 50°53' W 001°24'0 0.0
2015-Jul-30 17:33N 50°53' W 001°24'0 0.0
2015-Jul-30 00:33N 50°53' W 001°24'0 0.0
2015-Jul-29 23:30N 50°53' W 001°24'0 0.0
2015-Jul-29 22:27N 50°53' W 001°24'0 0.0
2015-Jul-29 20:33N 50°53' W 001°24'0 0.0
2015-Jul-29 19:33N 50°53' W 001°24'0 0.0
2015-Jul-29 18:33N 50°53' W 001°24'0 0.0
2015-Jul-29 12:29N 50°53' W 001°24'6 6.4
2015-Jul-29 11:34N 50°49' W 001°17'9 9.3
2015-Jul-29 10:33N 50°44' W 001°04'2 1.8
2015-Jul-29 09:31N 50°43' W 001°03'0 0.0
2015-Jul-29 08:32N 50°43' W 001°03'4 4.0
2015-Jul-29 07:33N 50°39' W 000°59'9 9.2
2015-Jul-29 06:33N 50°33' W 001°10'68 9.7
2015-Jul-28 23:33N 50°16' W 002°53'8 8.1
2015-Jul-28 22:34N 50°14' W 003°05'9 8.4
2015-Jul-28 21:29N 50°12' W 003°19'8 8.8
2015-Jul-28 20:33N 50°10' W 003°31'  
Track history (hours):
 
Tides and Currents Weather Stations Pressure Air Temp Water Temp Dewpoint Dewpoint Depression Visibility Wind Speed Wind Dir Waves Ship Positions

Hagen

Last reported at 2015-Aug-04 09:17 UTC. Time now 2015-Aug-04 09:43 UTC.
Position N 51°05' E 004°20'.

Length 89 m; draft 5.9 m.

Type: Cargo ship. MMSI: 304010898.

Date/timePositionNaut miles runAvg speedWind from/ knotsBaromVisibWave heightAir tempDewpointWater temp
2015-Aug-04 09:17N 51°05' E 004°20'0 0.0
2015-Aug-04 07:32N 51°05' E 004°20'0 0.0
2015-Aug-04 06:26N 51°05' E 004°20'0 0.0
2015-Aug-04 05:32N 51°05' E 004°20'0 0.0
2015-Aug-04 04:32N 51°05' E 004°20'0 0.0
2015-Aug-04 03:32N 51°05' E 004°20'0 0.0
2015-Aug-04 02:32N 51°05' E 004°20'0 0.0
2015-Aug-04 01:32N 51°05' E 004°20'0 0.0
2015-Aug-04 00:32N 51°05' E 004°20'0 0.0
2015-Aug-03 23:23N 51°05' E 004°20'0 0.0
2015-Aug-03 19:32N 51°05' E 004°20'0 0.0
2015-Aug-03 18:29N 51°05' E 004°20'0 0.0
2015-Aug-03 17:29N 51°05' E 004°20'0 0.0
2015-Aug-03 16:11N 51°05' E 004°20'0 0.0
2015-Aug-03 15:32N 51°05' E 004°20'0 0.0
2015-Aug-03 14:32N 51°05' E 004°20'0 0.0
2015-Aug-03 13:05N 51°05' E 004°20'0 0.0
2015-Aug-03 12:29N 51°05' E 004°20'0 0.0
2015-Aug-03 10:29N 51°05' E 004°20'0 0.0
2015-Aug-03 09:32N 51°05' E 004°20'0 0.0
2015-Aug-03 08:29N 51°05' E 004°20'0 0.0
2015-Aug-03 07:32N 51°05' E 004°20'0 0.0
2015-Aug-03 06:29N 51°05' E 004°20'0 0.0
2015-Aug-03 04:17N 51°05' E 004°20'0 0.0
2015-Aug-03 03:32N 51°05' E 004°20'0 0.0
2015-Aug-03 02:23N 51°05' E 004°20'0 0.0
2015-Aug-03 00:32N 51°05' E 004°20'0 0.0
2015-Aug-02 23:26N 51°05' E 004°20'0 0.0
2015-Aug-02 21:26N 51°05' E 004°20'0 0.0
2015-Aug-02 20:14N 51°05' E 004°20'0 0.0
2015-Aug-02 19:26N 51°05' E 004°20'0 0.0
2015-Aug-02 18:23N 51°05' E 004°20'0 0.0
2015-Aug-02 17:29N 51°05' E 004°20'0 0.0
2015-Aug-02 16:20N 51°05' E 004°20'0 0.0
2015-Aug-02 15:23N 51°05' E 004°20'1 1.4
2015-Aug-02 14:31N 51°06' E 004°19'3 2.6
2015-Aug-02 13:33N 51°08' E 004°20'7 6.8
2015-Aug-02 12:33N 51°15' E 004°19'9 9.2
2015-Aug-02 11:33N 51°24' E 004°13'9 8.9
2015-Aug-02 10:33N 51°26' E 003°59'9 9.2
2015-Aug-02 09:33N 51°22' E 003°46'9 9.0
2015-Aug-02 08:33N 51°25' E 003°33'9 8.8
2015-Aug-02 07:33N 51°24' E 003°19'8 8.1
2015-Aug-02 06:33N 51°24' E 003°05'10 9.6
2015-Aug-02 05:33N 51°22' E 002°51'10 9.4
2015-Aug-02 04:32N 51°22' E 002°35'7 6.7
2015-Aug-02 03:33N 51°20' E 002°25'4 3.6
2015-Aug-02 02:33N 51°19' E 002°20'7 6.8
2015-Aug-02 01:33N 51°16' E 002°10'1413.6
2015-Aug-02 00:33N 51°09' E 001°51'1413.9
2015-Aug-01 23:33N 50°60' E 001°35'1312.7
2015-Aug-01 22:33N 50°49' E 001°25'1311.5
2015-Aug-01 21:27N 50°39' E 001°13'74 9.1
2015-Aug-01 13:14N 50°34' W 000°44'6 9.0
2015-Aug-01 12:33N 50°39' W 000°51'9 8.9
2015-Aug-01 11:33N 50°43' W 001°03'10 9.8
2015-Aug-01 10:33N 50°48' W 001°16'7 6.6
2015-Aug-01 09:33N 50°53' W 001°24'0 0.0
2015-Aug-01 08:33N 50°53' W 001°24'0 0.0
2015-Aug-01 07:33N 50°53' W 001°24'0 0.0
2015-Aug-01 05:30N 50°53' W 001°24'0 0.0
2015-Aug-01 02:33N 50°53' W 001°24'0 0.0
2015-Jul-31 22:27N 50°53' W 001°24'0 0.0
2015-Jul-31 21:21N 50°53' W 001°24'0 0.0
2015-Jul-31 20:33N 50°53' W 001°24'0 0.0
2015-Jul-31 16:33N 50°53' W 001°24'0 0.0
2015-Jul-31 15:27N 50°53' W 001°24'0 0.0
2015-Jul-31 04:21N 50°53' W 001°24'0 0.0
2015-Jul-31 03:24N 50°53' W 001°24'0 0.0
2015-Jul-31 02:33N 50°53' W 001°24'0 0.0
2015-Jul-31 01:33N 50°53' W 001°24'0 0.0
2015-Jul-31 00:27N 50°53' W 001°24'0 0.0
2015-Jul-30 23:33N 50°53' W 001°24'0 0.0
2015-Jul-30 22:06N 50°53' W 001°24'0 0.0
2015-Jul-30 21:33N 50°53' W 001°24'0 0.0
2015-Jul-30 20:33N 50°53' W 001°24'0 0.0
2015-Jul-30 19:33N 50°53' W 001°24'0 0.0
2015-Jul-30 18:30N 50°53' W 001°24'0 0.0
2015-Jul-30 17:33N 50°53' W 001°24'0 0.0
2015-Jul-30 00:33N 50°53' W 001°24'0 0.0
2015-Jul-29 23:30N 50°53' W 001°24'0 0.0
2015-Jul-29 22:27N 50°53' W 001°24'0 0.0
2015-Jul-29 20:33N 50°53' W 001°24'0 0.0
2015-Jul-29 19:33N 50°53' W 001°24'0 0.0
2015-Jul-29 18:33N 50°53' W 001°24'0 0.0
2015-Jul-29 12:29N 50°53' W 001°24'6 6.4
2015-Jul-29 11:34N 50°49' W 001°17'9 9.3
2015-Jul-29 10:33N 50°44' W 001°04'2 1.8
2015-Jul-29 09:31N 50°43' W 001°03'0 0.0
2015-Jul-29 08:32N 50°43' W 001°03'4 4.0
2015-Jul-29 07:33N 50°39' W 000°59'9 9.2
2015-Jul-29 06:33N 50°33' W 001°10'68 9.7
2015-Jul-28 23:33N 50°16' W 002°53'8 8.1
2015-Jul-28 22:34N 50°14' W 003°05'9 8.4
2015-Jul-28 21:29N 50°12' W 003°19'8 8.8
2015-Jul-28 20:33N 50°10' W 003°31'  

Dump ship's entire track history